Time;durP1;ratioP1;P1;durP2;ratioP2;P2;SDS_P1;SDS_P2;PMS_P1;PMS_P2;Temp;Humidity;BMP_temperature;BMP_pressure;BME280_temperature;BME280_humidity;BME280_pressure;Samples;Min_cycle;Max_cycle;Signal;HPM_P1;HPM_P2
2022/09/22 00:00:32;;;;;;;2.15;1.42;;;;;;;;;;7390590;19;20023;-69
2022/09/22 00:02:58;;;;;;;2.15;1.38;;;;;;;;;;7366304;19;20501;-69
2022/09/22 00:05:25;;;;;;;2.15;1.25;;;;;;;;;;7354836;19;20470;-69
2022/09/22 00:07:52;;;;;;;4.93;2.65;;;;;;;;;;7361831;19;20002;-70
2022/09/22 00:10:21;;;;;;;2.10;1.40;;;;;;;;;;7391016;19;20010;-70
2022/09/22 00:12:49;;;;;;;2.90;1.40;;;;;;;;;;7388536;19;20010;-69
2022/09/22 00:15:16;;;;;;;3.30;1.60;;;;;;;;;;7388929;19;20010;-69
2022/09/22 00:17:42;;;;;;;2.95;1.70;;;;;;;;;;7391885;19;20051;-69
2022/09/22 00:20:08;;;;;;;2.92;1.63;;;;;;;;;;7377785;19;20357;-70
2022/09/22 00:22:33;;;;;;;2.38;1.55;;;;;;;;;;7389741;19;20019;-69
2022/09/22 00:25:00;;;;;;;7.70;1.90;;;;;;;;;;7388801;19;20014;-69
2022/09/22 00:27:25;;;;;;;2.85;1.80;;;;;;;;;;7391311;19;20206;-70
2022/09/22 00:29:50;;;;;;;2.05;1.67;;;;;;;;;;7390560;19;20095;-69
2022/09/22 00:32:17;;;;;;;3.25;1.73;;;;;;;;;;7387499;19;20002;-69
2022/09/22 00:34:43;;;;;;;3.08;1.77;;;;;;;;;;7391263;19;20014;-69
2022/09/22 00:37:09;;;;;;;2.28;1.58;;;;;;;;;;7389379;19;19999;-69
2022/09/22 00:39:35;;;;;;;3.20;1.70;;;;;;;;;;7380302;19;20484;-69
2022/09/22 00:42:00;;;;;;;3.08;1.45;;;;;;;;;;7354333;19;20006;-69
2022/09/22 00:44:31;;;;;;;1.65;1.30;;;;;;;;;;7377907;19;20018;-69
2022/09/22 00:46:56;;;;;;;2.55;1.30;;;;;;;;;;7387975;19;20017;-69
2022/09/22 00:49:33;;;;;;;2.45;1.60;;;;;;;;;;7389691;19;20002;-69
2022/09/22 00:51:59;;;;;;;2.50;1.50;;;;;;;;;;7350911;19;20111;-69
2022/09/22 00:54:25;;;;;;;2.13;1.30;;;;;;;;;;7351659;19;20007;-69
2022/09/22 00:57:00;;;;;;;3.72;1.77;;;;;;;;;;7357639;19;20261;-69
2022/09/22 00:59:26;;;;;;;6.90;1.98;;;;;;;;;;7353536;19;20479;-69
2022/09/22 01:01:51;;;;;;;2.53;1.77;;;;;;;;;;7358598;19;20007;-69
2022/09/22 01:04:17;;;;;;;1.60;1.30;;;;;;;;;;7390311;19;20478;-70
2022/09/22 01:06:44;;;;;;;2.92;1.45;;;;;;;;;;7389340;19;20035;-70
2022/09/22 01:09:10;;;;;;;2.08;1.30;;;;;;;;;;7390511;19;20025;-69
2022/09/22 01:11:37;;;;;;;2.28;1.50;;;;;;;;;;7395247;19;20340;-69
2022/09/22 01:14:17;;;;;;;1.77;1.23;;;;;;;;;;7395414;19;20356;-69
2022/09/22 01:17:16;;;;;;;2.58;1.58;;;;;;;;;;7375559;19;20002;-69
2022/09/22 01:20:26;;;;;;;2.35;1.23;;;;;;;;;;7364849;19;20495;-69
2022/09/22 01:23:24;;;;;;;2.55;1.17;;;;;;;;;;7359768;19;20102;-70
2022/09/22 01:26:09;;;;;;;2.47;1.55;;;;;;;;;;7357173;19;20483;-69
2022/09/22 01:28:37;;;;;;;2.97;1.30;;;;;;;;;;7362885;19;20011;-69
2022/09/22 01:31:26;;;;;;;2.78;1.77;;;;;;;;;;7360637;19;20006;-69
2022/09/22 01:34:27;;;;;;;2.88;1.50;;;;;;;;;;7368081;19;20121;-69
2022/09/22 01:37:09;;;;;;;2.80;1.52;;;;;;;;;;7358351;19;20027;-69
2022/09/22 01:39:42;;;;;;;3.75;1.90;;;;;;;;;;7363149;19;20018;-69
2022/09/22 01:42:17;;;;;;;2.78;1.58;;;;;;;;;;7361022;19;20044;-69
2022/09/22 01:45:10;;;;;;;3.08;1.92;;;;;;;;;;7360316;19;20014;-69
2022/09/22 01:47:49;;;;;;;3.65;2.45;;;;;;;;;;7365769;19;20006;-69
2022/09/22 01:50:22;;;;;;;3.60;2.20;;;;;;;;;;7363044;19;21190;-69
2022/09/22 01:52:51;;;;;;;3.22;1.88;;;;;;;;;;7394535;19;20015;-77
2022/09/22 01:55:30;;;;;;;2.95;1.77;;;;;;;;;;7397675;19;20015;-77
2022/09/22 01:58:07;;;;;;;4.15;2.13;;;;;;;;;;7394988;19;19998;-77
2022/09/22 02:00:36;;;;;;;3.70;2.30;;;;;;;;;;7394586;19;20031;-77
2022/09/22 02:03:18;;;;;;;3.67;1.98;;;;;;;;;;7395541;19;20074;-76
2022/09/22 02:05:49;;;;;;;2.60;1.65;;;;;;;;;;7396910;19;20007;-77
2022/09/22 02:08:37;;;;;;;2.67;1.30;;;;;;;;;;7397219;19;20014;-76
2022/09/22 02:11:09;;;;;;;2.10;1.35;;;;;;;;;;7394936;19;20048;-76
2022/09/22 02:13:35;;;;;;;2.10;1.48;;;;;;;;;;7399556;19;19998;-77
2022/09/22 02:16:02;;;;;;;3.22;1.45;;;;;;;;;;7398749;19;20011;-77
2022/09/22 02:18:42;;;;;;;2.53;1.40;;;;;;;;;;7395600;19;20078;-77
2022/09/22 02:21:09;;;;;;;2.67;1.02;;;;;;;;;;7395779;19;19998;-77
2022/09/22 02:23:35;;;;;;;3.60;1.63;;;;;;;;;;7395402;19;20009;-76
2022/09/22 02:26:03;;;;;;;2.63;1.08;;;;;;;;;;7394119;19;20062;-77
2022/09/22 02:28:31;;;;;;;1.80;1.17;;;;;;;;;;7395050;19;20006;-76
2022/09/22 02:30:58;;;;;;;1.42;1.00;;;;;;;;;;7397816;19;19998;-76
2022/09/22 02:33:25;;;;;;;1.40;0.88;;;;;;;;;;7393149;19;20026;-77
2022/09/22 02:36:00;;;;;;;1.95;1.20;;;;;;;;;;7398662;19;20006;-76
2022/09/22 02:38:34;;;;;;;2.00;0.82;;;;;;;;;;7395520;19;20018;-77
2022/09/22 02:41:17;;;;;;;2.00;0.82;;;;;;;;;;7395692;19;20471;-76
2022/09/22 02:43:49;;;;;;;1.55;1.00;;;;;;;;;;7395278;19;20086;-76
2022/09/22 02:46:26;;;;;;;3.05;1.17;;;;;;;;;;7397492;19;20003;-77
2022/09/22 02:49:00;;;;;;;1.13;0.80;;;;;;;;;;7395067;19;20477;-76
2022/09/22 02:51:28;;;;;;;1.38;1.10;;;;;;;;;;7396365;19;20023;-76
2022/09/22 02:53:53;;;;;;;2.30;1.08;;;;;;;;;;7396292;19;20014;-76
2022/09/22 02:56:19;;;;;;;1.52;0.98;;;;;;;;;;7392530;19;20010;-77
2022/09/22 02:58:44;;;;;;;1.95;0.95;;;;;;;;;;7394787;19;20003;-77
2022/09/22 03:01:09;;;;;;;1.25;1.02;;;;;;;;;;7395655;19;19995;-77
2022/09/22 03:03:35;;;;;;;1.35;0.90;;;;;;;;;;7394940;19;20003;-77
2022/09/22 03:06:00;;;;;;;1.23;0.85;;;;;;;;;;7395737;19;20022;-76
2022/09/22 03:08:25;;;;;;;1.83;0.90;;;;;;;;;;7395658;19;20015;-76
2022/09/22 03:10:51;;;;;;;2.10;1.17;;;;;;;;;;7396452;19;20010;-76
2022/09/22 03:13:16;;;;;;;1.95;0.88;;;;;;;;;;7391984;19;20373;-76
2022/09/22 03:15:42;;;;;;;1.50;0.85;;;;;;;;;;7397541;19;20119;-77
2022/09/22 03:18:07;;;;;;;0.68;0.68;;;;;;;;;;7393859;19;20014;-77
2022/09/22 03:20:33;;;;;;;2.15;0.68;;;;;;;;;;7396088;19;20001;-76
2022/09/22 03:22:58;;;;;;;3.72;1.98;;;;;;;;;;7391480;19;20429;-77
2022/09/22 03:25:23;;;;;;;2.17;0.82;;;;;;;;;;7396127;19;20347;-77
2022/09/22 03:27:49;;;;;;;1.70;0.95;;;;;;;;;;7394758;19;20049;-77
2022/09/22 03:30:14;;;;;;;1.02;0.93;;;;;;;;;;7394229;19;20033;-76
2022/09/22 03:32:40;;;;;;;1.45;1.15;;;;;;;;;;7393886;19;20014;-76
2022/09/22 03:35:06;;;;;;;2.33;1.23;;;;;;;;;;7392708;19;20182;-77
2022/09/22 03:37:33;;;;;;;2.97;1.45;;;;;;;;;;7392696;19;20031;-76
2022/09/22 03:39:58;;;;;;;3.10;1.63;;;;;;;;;;7393792;19;20011;-76
2022/09/22 03:42:24;;;;;;;3.75;1.48;;;;;;;;;;7394012;19;20014;-77
2022/09/22 03:44:49;;;;;;;3.53;1.50;;;;;;;;;;7392390;19;20011;-76
2022/09/22 03:47:14;;;;;;;1.27;0.93;;;;;;;;;;7390356;19;20070;-77
2022/09/22 03:49:40;;;;;;;2.42;0.90;;;;;;;;;;7390851;19;20002;-77
2022/09/22 03:52:05;;;;;;;1.58;0.85;;;;;;;;;;7391599;19;20319;-77
2022/09/22 03:54:31;;;;;;;1.60;1.08;;;;;;;;;;7394886;19;20002;-77
2022/09/22 03:56:56;;;;;;;1.20;0.93;;;;;;;;;;7392420;19;20118;-77
2022/09/22 03:59:21;;;;;;;1.23;0.93;;;;;;;;;;7394169;19;20026;-77
2022/09/22 04:01:47;;;;;;;1.90;1.20;;;;;;;;;;7394273;19;20010;-77
2022/09/22 04:04:12;;;;;;;1.70;1.00;;;;;;;;;;7392648;19;20010;-76
2022/09/22 04:06:37;;;;;;;1.05;0.95;;;;;;;;;;7391888;19;20078;-76
2022/09/22 04:09:04;;;;;;;1.42;0.93;;;;;;;;;;7392138;19;20038;-77
2022/09/22 04:11:29;;;;;;;1.40;1.00;;;;;;;;;;7389526;19;20326;-76
2022/09/22 04:13:54;;;;;;;1.92;1.25;;;;;;;;;;7391609;19;20010;-76
2022/09/22 04:16:20;;;;;;;1.63;1.08;;;;;;;;;;7393050;19;20017;-77
2022/09/22 04:18:45;;;;;;;1.58;1.05;;;;;;;;;;7391810;19;20011;-76
2022/09/22 04:21:11;;;;;;;1.38;0.95;;;;;;;;;;7392171;19;19995;-77
2022/09/22 04:23:36;;;;;;;1.45;0.90;;;;;;;;;;7394116;19;20471;-77
2022/09/22 04:26:03;;;;;;;3.00;1.00;;;;;;;;;;7389598;19;20011;-77
2022/09/22 04:28:29;;;;;;;1.20;0.80;;;;;;;;;;7389932;19;20037;-76
2022/09/22 04:30:54;;;;;;;1.05;0.85;;;;;;;;;;7390289;19;20009;-77
2022/09/22 04:33:21;;;;;;;2.55;1.15;;;;;;;;;;7392981;19;20082;-76
2022/09/22 04:35:48;;;;;;;2.20;1.10;;;;;;;;;;7392097;19;20074;-76
2022/09/22 04:38:14;;;;;;;0.98;0.55;;;;;;;;;;7393940;19;20869;-76
2022/09/22 04:40:39;;;;;;;1.05;0.90;;;;;;;;;;7386990;19;20027;-77
2022/09/22 04:43:04;;;;;;;4.72;1.00;;;;;;;;;;7387320;19;20308;-76
2022/09/22 04:45:30;;;;;;;0.88;0.85;;;;;;;;;;7387000;19;20056;-77
2022/09/22 04:47:55;;;;;;;1.10;0.80;;;;;;;;;;7391792;19;20078;-77
2022/09/22 04:50:22;;;;;;;1.08;0.70;;;;;;;;;;7390845;19;20487;-77
2022/09/22 04:52:52;;;;;;;1.42;1.10;;;;;;;;;;7390395;19;20122;-77
2022/09/22 04:55:19;;;;;;;1.23;0.75;;;;;;;;;;7388991;19;20007;-77
2022/09/22 04:57:49;;;;;;;1.17;0.60;;;;;;;;;;7390853;19;20344;-76
2022/09/22 05:00:16;;;;;;;1.95;0.88;;;;;;;;;;7390550;19;20002;-77
2022/09/22 05:02:41;;;;;;;1.10;0.75;;;;;;;;;;7388393;19;20074;-77
2022/09/22 05:05:07;;;;;;;0.70;0.60;;;;;;;;;;7390147;19;20471;-76
2022/09/22 05:07:32;;;;;;;1.45;0.70;;;;;;;;;;7389606;19;20082;-76
2022/09/22 05:09:58;;;;;;;0.80;0.50;;;;;;;;;;7391916;19;20353;-77
2022/09/22 05:12:23;;;;;;;1.42;0.93;;;;;;;;;;7389965;19;20006;-78
2022/09/22 05:14:49;;;;;;;1.60;0.98;;;;;;;;;;7390943;19;20033;-76
2022/09/22 05:17:14;;;;;;;2.40;0.88;;;;;;;;;;7392833;19;20381;-77
2022/09/22 05:19:40;;;;;;;1.33;1.00;;;;;;;;;;7388204;19;20006;-76
2022/09/22 05:22:05;;;;;;;1.70;1.17;;;;;;;;;;7390217;19;20010;-75
2022/09/22 05:24:31;;;;;;;1.35;1.00;;;;;;;;;;7390222;19;20058;-75
2022/09/22 05:26:57;;;;;;;1.65;0.90;;;;;;;;;;7392002;19;20421;-78
2022/09/22 05:29:22;;;;;;;1.42;0.90;;;;;;;;;;7385288;19;20054;-77
2022/09/22 05:31:47;;;;;;;5.30;1.05;;;;;;;;;;7384543;19;20019;-76
2022/09/22 05:34:13;;;;;;;1.85;0.73;;;;;;;;;;7385106;19;19999;-77
2022/09/22 05:36:38;;;;;;;0.98;0.80;;;;;;;;;;7383868;19;20071;-77
2022/09/22 05:39:03;;;;;;;3.75;2.08;;;;;;;;;;7385754;19;20010;-76
2022/09/22 05:41:29;;;;;;;9.20;3.15;;;;;;;;;;7383207;19;20102;-76
2022/09/22 05:43:54;;;;;;;3.42;2.05;;;;;;;;;;7388233;19;20009;-77
2022/09/22 05:46:19;;;;;;;2.67;1.60;;;;;;;;;;7389208;19;20012;-74
2022/09/22 05:48:45;;;;;;;2.95;1.77;;;;;;;;;;7381922;19;20011;-73
2022/09/22 05:51:11;;;;;;;5.97;1.90;;;;;;;;;;7385028;19;20479;-75
2022/09/22 05:53:36;;;;;;;4.63;1.73;;;;;;;;;;7389440;19;20006;-75
2022/09/22 05:56:01;;;;;;;5.45;2.20;;;;;;;;;;7387987;19;20010;-75
2022/09/22 05:58:27;;;;;;;5.20;3.15;;;;;;;;;;7397245;19;20019;-75
2022/09/22 06:00:55;;;;;;;5.10;2.83;;;;;;;;;;7396943;19;20097;-76
2022/09/22 06:03:21;;;;;;;2.72;1.90;;;;;;;;;;7396580;19;20003;-76
2022/09/22 06:05:46;;;;;;;2.70;1.33;;;;;;;;;;7397276;19;20030;-78
2022/09/22 06:08:11;;;;;;;2.30;1.08;;;;;;;;;;7392048;19;20014;-77
2022/09/22 06:10:37;;;;;;;1.40;1.13;;;;;;;;;;7394500;19;20357;-76
2022/09/22 06:13:05;;;;;;;1.20;0.85;;;;;;;;;;7394204;19;20007;-77
2022/09/22 06:15:32;;;;;;;1.83;0.98;;;;;;;;;;7396933;19;20014;-77
2022/09/22 06:17:59;;;;;;;1.05;0.82;;;;;;;;;;7396956;19;20006;-77
2022/09/22 06:20:25;;;;;;;1.23;1.13;;;;;;;;;;7397005;19;20009;-77
2022/09/22 06:22:50;;;;;;;1.50;0.90;;;;;;;;;;7394786;19;20006;-77
2022/09/22 06:25:15;;;;;;;1.15;0.90;;;;;;;;;;7398155;19;20007;-77
2022/09/22 06:27:42;;;;;;;1.17;1.00;;;;;;;;;;7395821;19;20006;-76
2022/09/22 06:30:10;;;;;;;6.25;1.20;;;;;;;;;;7391200;19;20010;-77
2022/09/22 06:32:38;;;;;;;0.95;0.90;;;;;;;;;;7396263;19;20006;-77
2022/09/22 06:35:05;;;;;;;3.28;1.20;;;;;;;;;;7396539;19;20099;-77
2022/09/22 06:37:31;;;;;;;2.60;1.02;;;;;;;;;;7397086;19;20348;-77
2022/09/22 06:39:56;;;;;;;1.30;0.90;;;;;;;;;;7395107;19;20648;-77
2022/09/22 06:42:22;;;;;;;1.60;0.95;;;;;;;;;;7394416;19;20010;-76
2022/09/22 06:44:47;;;;;;;1.38;1.00;;;;;;;;;;7397550;19;20479;-77
2022/09/22 06:47:13;;;;;;;1.48;1.30;;;;;;;;;;7396297;19;20753;-77
2022/09/22 06:49:38;;;;;;;1.27;1.10;;;;;;;;;;7396563;19;19999;-76
2022/09/22 06:52:04;;;;;;;1.48;1.23;;;;;;;;;;7394185;19;20459;-76
2022/09/22 06:54:30;;;;;;;1.77;1.20;;;;;;;;;;7395665;19;20018;-76
2022/09/22 06:56:55;;;;;;;2.22;1.50;;;;;;;;;;7398005;19;19991;-76
2022/09/22 06:59:20;;;;;;;5.65;1.42;;;;;;;;;;7390130;19;20021;-76
2022/09/22 07:01:46;;;;;;;2.53;1.65;;;;;;;;;;7391818;19;20006;-76
2022/09/22 07:04:11;;;;;;;3.88;1.50;;;;;;;;;;7396680;19;20070;-75
2022/09/22 07:06:38;;;;;;;3.03;1.75;;;;;;;;;;7395072;19;20471;-76
2022/09/22 07:09:04;;;;;;;2.92;1.73;;;;;;;;;;7394374;19;20078;-76
2022/09/22 07:11:29;;;;;;;3.05;1.65;;;;;;;;;;7392899;19;20014;-76
2022/09/22 07:13:55;;;;;;;1.92;1.38;;;;;;;;;;7393095;19;20339;-78
2022/09/22 07:16:22;;;;;;;3.33;1.90;;;;;;;;;;7394676;19;20006;-78
2022/09/22 07:18:59;;;;;;;2.05;1.38;;;;;;;;;;7396176;19;20010;-76
2022/09/22 07:21:31;;;;;;;2.70;1.58;;;;;;;;;;7393850;19;20018;-76
2022/09/22 07:23:57;;;;;;;2.22;1.50;;;;;;;;;;7390981;19;20015;-76
2022/09/22 07:26:29;;;;;;;2.25;1.80;;;;;;;;;;7394151;19;20077;-76
2022/09/22 07:28:57;;;;;;;7.40;1.42;;;;;;;;;;7395090;19;20028;-76
2022/09/22 07:31:22;;;;;;;2.28;1.45;;;;;;;;;;7390608;19;20033;-76
2022/09/22 07:33:48;;;;;;;2.97;1.65;;;;;;;;;;7392366;19;20051;-74
2022/09/22 07:36:24;;;;;;;2.05;1.40;;;;;;;;;;7394159;19;20007;-76
2022/09/22 07:38:52;;;;;;;2.42;1.90;;;;;;;;;;7387528;19;20006;-76
2022/09/22 07:41:28;;;;;;;2.53;1.80;;;;;;;;;;7394389;19;19991;-77
2022/09/22 07:43:56;;;;;;;2.67;1.83;;;;;;;;;;7395040;19;20474;-76
2022/09/22 07:46:22;;;;;;;2.67;1.95;;;;;;;;;;7392620;19;20026;-77
2022/09/22 07:48:47;;;;;;;3.25;1.65;;;;;;;;;;7388725;19;20098;-76
2022/09/22 07:51:19;;;;;;;3.30;1.95;;;;;;;;;;7377742;19;20010;-75
2022/09/22 07:53:50;;;;;;;2.00;1.42;;;;;;;;;;7390792;19;20462;-75
2022/09/22 07:56:19;;;;;;;1.83;1.58;;;;;;;;;;7391666;19;20018;-75
2022/09/22 07:58:48;;;;;;;3.78;1.92;;;;;;;;;;7388687;19;20005;-76
2022/09/22 08:01:14;;;;;;;1.60;1.10;;;;;;;;;;7393838;19;20023;-75
2022/09/22 08:03:40;;;;;;;1.92;1.63;;;;;;;;;;7394180;19;20010;-76
2022/09/22 08:06:10;;;;;;;2.72;1.70;;;;;;;;;;7384675;19;20002;-76
2022/09/22 08:09:02;;;;;;;3.22;1.77;;;;;;;;;;7391422;19;20324;-77
2022/09/22 08:11:28;;;;;;;2.22;1.67;;;;;;;;;;7388069;19;20012;-76
2022/09/22 08:13:58;;;;;;;2.63;1.40;;;;;;;;;;7391226;19;20006;-77
2022/09/22 08:16:27;;;;;;;1.95;1.42;;;;;;;;;;7392371;19;20036;-76
2022/09/22 08:18:54;;;;;;;2.28;1.67;;;;;;;;;;7391678;19;20070;-78
2022/09/22 08:21:20;;;;;;;3.97;1.52;;;;;;;;;;7391532;19;20022;-77
2022/09/22 08:23:46;;;;;;;3.60;1.40;;;;;;;;;;7391887;19;20644;-76
2022/09/22 08:26:11;;;;;;;3.05;1.60;;;;;;;;;;7391065;19;20037;-76
2022/09/22 08:28:36;;;;;;;2.83;1.50;;;;;;;;;;7393198;19;20408;-76
2022/09/22 08:31:10;;;;;;;3.65;1.30;;;;;;;;;;7390015;19;20010;-76
2022/09/22 08:33:36;;;;;;;3.03;1.20;;;;;;;;;;7393115;19;20531;-76
2022/09/22 08:36:02;;;;;;;2.00;1.23;;;;;;;;;;7391882;19;20022;-77
2022/09/22 08:38:29;;;;;;;1.50;1.27;;;;;;;;;;7392515;19;19998;-77
2022/09/22 08:41:00;;;;;;;2.38;1.50;;;;;;;;;;7387988;19;20026;-77
2022/09/22 08:43:26;;;;;;;2.47;1.55;;;;;;;;;;7388864;19;20013;-77
2022/09/22 08:45:52;;;;;;;2.30;1.40;;;;;;;;;;7391407;19;20026;-77
2022/09/22 08:54:05;;;;;;;1.98;1.55;;;;;;;;;;7385650;19;20506;-77
2022/09/22 08:56:42;;;;;;;1.60;1.38;;;;;;;;;;7389071;19;20011;-74
2022/09/22 08:59:21;;;;;;;1.80;1.60;;;;;;;;;;7392039;19;20027;-77
2022/09/22 09:02:08;;;;;;;2.95;1.58;;;;;;;;;;7389707;19;20078;-77
2022/09/22 09:04:58;;;;;;;1.25;1.15;;;;;;;;;;7391394;19;20038;-76
2022/09/22 09:07:59;;;;;;;2.45;1.20;;;;;;;;;;7384712;19;20023;-76
2022/09/22 09:10:49;;;;;;;2.35;1.42;;;;;;;;;;7388064;19;20006;-76
2022/09/22 09:13:39;;;;;;;2.03;1.48;;;;;;;;;;7390256;19;20011;-77
2022/09/22 09:16:37;;;;;;;1.80;1.58;;;;;;;;;;7389355;19;20002;-75
2022/09/22 09:19:13;;;;;;;2.58;1.20;;;;;;;;;;7392671;19;19994;-76
2022/09/22 09:21:46;;;;;;;1.70;1.17;;;;;;;;;;7390881;19;20011;-76
2022/09/22 09:24:19;;;;;;;2.17;1.15;;;;;;;;;;7391097;19;20066;-77
2022/09/22 09:26:45;;;;;;;1.52;1.20;;;;;;;;;;7389733;19;20355;-77
2022/09/22 09:29:19;;;;;;;1.40;1.02;;;;;;;;;;7390969;19;20018;-76
2022/09/22 09:31:52;;;;;;;4.53;1.27;;;;;;;;;;7392555;19;20007;-76
2022/09/22 09:34:20;;;;;;;0.95;0.93;;;;;;;;;;7398631;19;20070;-77
2022/09/22 09:36:51;;;;;;;1.90;1.13;;;;;;;;;;7398582;19;20018;-76
2022/09/22 09:39:24;;;;;;;1.20;1.02;;;;;;;;;;7395455;19;20027;-77
2022/09/22 09:41:50;;;;;;;1.90;1.17;;;;;;;;;;7397074;19;20010;-76
2022/09/22 09:44:23;;;;;;;1.10;1.00;;;;;;;;;;7395774;19;20066;-76
2022/09/22 09:47:20;;;;;;;1.88;1.42;;;;;;;;;;7398882;19;20621;-77
2022/09/22 09:49:46;;;;;;;1.98;1.30;;;;;;;;;;7391823;19;20014;-78
2022/09/22 09:52:13;;;;;;;2.88;2.08;;;;;;;;;;7395628;19;20007;-77
2022/09/22 09:54:41;;;;;;;1.35;1.02;;;;;;;;;;7394793;19;20010;-77
2022/09/22 09:57:10;;;;;;;1.25;1.00;;;;;;;;;;7393678;19;20033;-76
2022/09/22 10:02:31;;;;;;;1.08;0.80;;;;;;;;;;7393543;19;20014;-77
2022/09/22 10:05:03;;;;;;;1.05;0.95;;;;;;;;;;7398352;19;20522;-77
2022/09/22 10:07:45;;;;;;;1.52;0.80;;;;;;;;;;7396196;19;20503;-75
2022/09/22 10:10:29;;;;;;;0.98;0.82;;;;;;;;;;7393575;19;20023;-77
2022/09/22 10:13:29;;;;;;;1.48;1.10;;;;;;;;;;7392575;19;20014;-77
2022/09/22 10:16:06;;;;;;;5.38;0.98;;;;;;;;;;7390778;19;20027;-78
2022/09/22 10:18:31;;;;;;;1.15;0.80;;;;;;;;;;7383957;19;20043;-77
2022/09/22 10:21:09;;;;;;;1.30;0.90;;;;;;;;;;7391856;19;20401;-77
2022/09/22 10:23:34;;;;;;;1.10;1.00;;;;;;;;;;7397926;19;20023;-77
2022/09/22 10:26:25;;;;;;;0.60;0.60;;;;;;;;;;7388008;19;20011;-77
2022/09/22 10:29:14;;;;;;;0.73;0.73;;;;;;;;;;7395897;19;20010;-77
2022/09/22 10:31:40;;;;;;;1.90;0.60;;;;;;;;;;7386658;19;20018;-74
2022/09/22 10:34:29;;;;;;;0.80;0.75;;;;;;;;;;7391975;19;20014;-74
2022/09/22 10:36:56;;;;;;;0.70;0.63;;;;;;;;;;7388793;19;20014;-74
2022/09/22 10:39:45;;;;;;;1.30;0.63;;;;;;;;;;7390992;19;20336;-74
2022/09/22 10:42:19;;;;;;;1.23;0.82;;;;;;;;;;7384274;19;20010;-74
2022/09/22 10:44:45;;;;;;;2.53;0.85;;;;;;;;;;7395256;19;20014;-74
2022/09/22 10:47:18;;;;;;;1.83;0.82;;;;;;;;;;7394254;19;20007;-74
2022/09/22 10:50:01;;;;;;;0.93;0.90;;;;;;;;;;7390857;19;20011;-74
2022/09/22 10:52:41;;;;;;;1.88;0.90;;;;;;;;;;7390649;19;20006;-75
2022/09/22 10:55:26;;;;;;;0.70;0.70;;;;;;;;;;7389851;19;20014;-75
2022/09/22 10:58:07;;;;;;;1.00;0.65;;;;;;;;;;7395778;19;20007;-75
2022/09/22 11:00:37;;;;;;;1.65;0.80;;;;;;;;;;7394614;19;20432;-75
2022/09/22 11:03:15;;;;;;;2.17;1.02;;;;;;;;;;7390479;19;20200;-76
2022/09/22 11:12:45;;;;;;;3.00;1.00;;;;;;;;;;7394595;19;20377;-75
2022/09/22 11:15:32;;;;;;;2.13;0.93;;;;;;;;;;7385589;19;20006;-76
2022/09/22 11:18:00;;;;;;;1.15;0.80;;;;;;;;;;7393396;19;20336;-75
2022/09/22 11:20:38;;;;;;;1.23;0.90;;;;;;;;;;7391717;19;20041;-76
2022/09/22 11:23:15;;;;;;;0.75;0.70;;;;;;;;;;7395406;19;19998;-76
2022/09/22 11:26:00;;;;;;;1.45;1.10;;;;;;;;;;7391362;19;20026;-75
2022/09/22 11:28:45;;;;;;;1.00;0.90;;;;;;;;;;7395505;19;20010;-76
2022/09/22 11:31:25;;;;;;;2.80;0.98;;;;;;;;;;7394668;19;20015;-75
2022/09/22 11:34:08;;;;;;;1.90;0.70;;;;;;;;;;7383230;19;20011;-77
2022/09/22 11:36:47;;;;;;;0.70;0.70;;;;;;;;;;7392006;19;20018;-78
2022/09/22 11:39:23;;;;;;;0.60;0.60;;;;;;;;;;7392043;19;20013;-78
2022/09/22 11:42:06;;;;;;;1.83;0.80;;;;;;;;;;7388252;19;20007;-77
2022/09/22 11:44:37;;;;;;;1.35;0.70;;;;;;;;;;7393742;19;20470;-77
2022/09/22 11:47:31;;;;;;;1.52;1.02;;;;;;;;;;7389831;19;20069;-76
2022/09/22 11:50:14;;;;;;;0.73;0.52;;;;;;;;;;7394087;19;20118;-76
2022/09/22 11:52:57;;;;;;;1.10;0.75;;;;;;;;;;7383610;19;20041;-76
2022/09/22 11:55:37;;;;;;;1.17;0.85;;;;;;;;;;7390583;19;20704;-75
2022/09/22 11:58:11;;;;;;;0.80;0.80;;;;;;;;;;7386966;19;20003;-76
2022/09/22 12:01:06;;;;;;;0.93;0.55;;;;;;;;;;7386066;19;20006;-76
2022/09/22 12:03:38;;;;;;;1.02;0.70;;;;;;;;;;7391601;19;20007;-74
2022/09/22 12:06:07;;;;;;;1.75;0.60;;;;;;;;;;7389474;19;19998;-76
2022/09/22 12:08:52;;;;;;;1.45;0.65;;;;;;;;;;7389143;19;20006;-76
2022/09/22 12:11:19;;;;;;;3.17;0.63;;;;;;;;;;7390942;19;20014;-76
2022/09/22 12:13:49;;;;;;;2.00;0.60;;;;;;;;;;7391925;19;20074;-75
2022/09/22 12:16:23;;;;;;;0.43;0.43;;;;;;;;;;7389958;19;20005;-77
2022/09/22 12:18:55;;;;;;;0.73;0.60;;;;;;;;;;7391030;19;20002;-76
2022/09/22 12:21:49;;;;;;;0.50;0.50;;;;;;;;;;7387271;19;20006;-76
2022/09/22 12:24:15;;;;;;;0.73;0.47;;;;;;;;;;7390569;19;20010;-77
2022/09/22 12:26:42;;;;;;;0.50;0.50;;;;;;;;;;7390220;19;20017;-77
2022/09/22 12:29:24;;;;;;;0.93;0.60;;;;;;;;;;7385690;19;20026;-75
2022/09/22 12:31:52;;;;;;;0.57;0.50;;;;;;;;;;7389424;19;20031;-75
2022/09/22 12:34:28;;;;;;;0.63;0.50;;;;;;;;;;7390561;19;19999;-76
2022/09/22 12:37:10;;;;;;;0.88;0.73;;;;;;;;;;7387909;19;20039;-77
2022/09/22 12:39:41;;;;;;;2.05;0.80;;;;;;;;;;7387663;19;20101;-77
2022/09/22 12:42:33;;;;;;;0.70;0.60;;;;;;;;;;7393982;19;20015;-76
2022/09/22 12:45:07;;;;;;;1.13;0.80;;;;;;;;;;7393985;19;20015;-75
2022/09/22 12:47:36;;;;;;;1.25;0.60;;;;;;;;;;7388563;19;20015;-76
2022/09/22 12:50:06;;;;;;;1.48;0.50;;;;;;;;;;7388995;19;20002;-78
2022/09/22 12:52:40;;;;;;;0.98;0.55;;;;;;;;;;7387887;19;20550;-78
2022/09/22 12:55:37;;;;;;;0.60;0.60;;;;;;;;;;7394018;19;20021;-77
2022/09/22 12:58:24;;;;;;;0.50;0.50;;;;;;;;;;7389327;19;20271;-77
2022/09/22 13:01:26;;;;;;;0.70;0.60;;;;;;;;;;7388196;19;20017;-77
2022/09/22 13:04:11;;;;;;;0.45;0.45;;;;;;;;;;7393435;19;20002;-77
2022/09/22 13:06:36;;;;;;;0.30;0.30;;;;;;;;;;7393051;19;20018;-76
2022/09/22 13:09:01;;;;;;;4.05;0.60;;;;;;;;;;7390991;19;20096;-76
2022/09/22 13:12:04;;;;;;;0.47;0.40;;;;;;;;;;7393375;19;20408;-76
2022/09/22 13:14:57;;;;;;;0.73;0.50;;;;;;;;;;7393743;19;20015;-76
2022/09/22 13:17:40;;;;;;;0.90;0.30;;;;;;;;;;7390013;19;20016;-76
2022/09/22 13:20:18;;;;;;;2.22;0.60;;;;;;;;;;7389431;19;20011;-76
2022/09/22 13:22:43;;;;;;;1.17;0.55;;;;;;;;;;7393279;19;20003;-76
2022/09/22 13:25:24;;;;;;;0.30;0.30;;;;;;;;;;7389691;19;20014;-76
2022/09/22 13:28:09;;;;;;;0.40;0.40;;;;;;;;;;7390913;19;20014;-75
2022/09/22 13:30:36;;;;;;;0.50;0.50;;;;;;;;;;7388147;19;20018;-76
2022/09/22 13:33:02;;;;;;;1.20;0.40;;;;;;;;;;7382399;19;20017;-76
2022/09/22 13:35:39;;;;;;;0.65;0.35;;;;;;;;;;7389629;19;20408;-77
2022/09/22 13:38:06;;;;;;;0.50;0.50;;;;;;;;;;7388902;19;20359;-76
2022/09/22 13:40:33;;;;;;;1.10;0.30;;;;;;;;;;7385731;19;20006;-76
2022/09/22 13:43:05;;;;;;;1.40;0.50;;;;;;;;;;7389337;19;20003;-77
2022/09/22 13:45:30;;;;;;;0.85;0.60;;;;;;;;;;7391103;19;20351;-76
2022/09/22 13:48:22;;;;;;;0.77;0.40;;;;;;;;;;7389845;19;20504;-74
2022/09/22 13:50:58;;;;;;;0.30;0.30;;;;;;;;;;7382993;19;20021;-74
2022/09/22 13:53:23;;;;;;;0.80;0.45;;;;;;;;;;7390491;19;20002;-76
2022/09/22 13:55:51;;;;;;;2.47;0.47;;;;;;;;;;7388438;19;20058;-75
2022/09/22 13:58:41;;;;;;;0.30;0.30;;;;;;;;;;7386267;19;20854;-75
2022/09/22 14:01:19;;;;;;;0.43;0.40;;;;;;;;;;7386153;19;19999;-75
2022/09/22 14:03:46;;;;;;;0.40;0.40;;;;;;;;;;7391637;19;20011;-76
2022/09/22 14:06:15;;;;;;;4.68;0.45;;;;;;;;;;7388280;19;19999;-75
2022/09/22 14:08:43;;;;;;;0.30;0.30;;;;;;;;;;7389909;19;20006;-75
2022/09/22 14:11:31;;;;;;;0.55;0.43;;;;;;;;;;7387745;19;20027;-75
2022/09/22 14:13:59;;;;;;;0.77;0.60;;;;;;;;;;7391632;19;20013;-75
2022/09/22 14:17:02;;;;;;;0.30;0.30;;;;;;;;;;7391553;19;19999;-76
2022/09/22 14:19:33;;;;;;;0.30;0.30;;;;;;;;;;7394232;19;20024;-75
2022/09/22 14:22:02;;;;;;;1.15;0.60;;;;;;;;;;7394671;19;20011;-75
2022/09/22 14:24:31;;;;;;;0.88;0.43;;;;;;;;;;7396848;19;20021;-75
2022/09/22 14:27:00;;;;;;;0.28;0.28;;;;;;;;;;7399830;19;20031;-75
2022/09/22 14:29:31;;;;;;;0.80;0.43;;;;;;;;;;7398447;19;19998;-75
2022/09/22 14:32:00;;;;;;;0.85;0.60;;;;;;;;;;7391938;19;20411;-75
2022/09/22 14:34:30;;;;;;;0.40;0.40;;;;;;;;;;7396269;19;20021;-75
2022/09/22 14:36:56;;;;;;;0.38;0.38;;;;;;;;;;7399383;19;20055;-75
2022/09/22 14:39:29;;;;;;;0.80;0.40;;;;;;;;;;7394255;19;20005;-75
2022/09/22 14:41:58;;;;;;;0.40;0.40;;;;;;;;;;7395006;19;19999;-76
2022/09/22 14:44:41;;;;;;;0.88;0.65;;;;;;;;;;7396341;19;20014;-76
2022/09/22 14:47:16;;;;;;;0.60;0.60;;;;;;;;;;7396177;19;20006;-76
2022/09/22 14:49:43;;;;;;;0.65;0.55;;;;;;;;;;7393917;19;20058;-75
2022/09/22 14:52:24;;;;;;;0.60;0.50;;;;;;;;;;7395628;19;20084;-75
2022/09/22 14:54:51;;;;;;;0.40;0.40;;;;;;;;;;7396171;19;20041;-75
2022/09/22 14:57:17;;;;;;;0.43;0.43;;;;;;;;;;7397661;19;19998;-76
2022/09/22 15:02:36;;;;;;;0.50;0.50;;;;;;;;;;7395737;19;20473;-75
2022/09/22 15:05:02;;;;;;;0.28;0.28;;;;;;;;;;7395861;19;20036;-75
2022/09/22 15:07:33;;;;;;;0.50;0.50;;;;;;;;;;7397838;19;20006;-75
2022/09/22 15:10:01;;;;;;;0.30;0.30;;;;;;;;;;7392643;19;20017;-75
2022/09/22 15:12:42;;;;;;;0.50;0.47;;;;;;;;;;7394582;19;20027;-75
2022/09/22 15:15:17;;;;;;;0.50;0.43;;;;;;;;;;7387695;19;20006;-77
2022/09/22 15:20:34;;;;;;;0.43;0.43;;;;;;;;;;7387299;19;20042;-73
2022/09/22 15:23:00;;;;;;;0.57;0.35;;;;;;;;;;7389205;19;20023;-75
2022/09/22 15:25:25;;;;;;;0.60;0.52;;;;;;;;;;7390434;19;20014;-74
2022/09/22 15:27:52;;;;;;;0.75;0.38;;;;;;;;;;7392734;19;20219;-74
2022/09/22 15:30:19;;;;;;;1.90;0.40;;;;;;;;;;7390199;19;20463;-75